Map

Track Data

SID SEASON NUMBER BASIN SUBBASIN NAME ISO_TIME NATURE LAT LON WMO_WIND WMO_PRES WMO_AGENCY TRACK_TYPE DIST2LAND LANDFALL IFLAG USA_AGENCY USA_ATCF_ID USA_LAT USA_LON USA_RECORD USA_STATUS USA_WIND USA_PRES USA_SSHS USA_R34_NE USA_R34_SE USA_R34_SW USA_R34_NW USA_R50_NE USA_R50_SE USA_R50_SW USA_R50_NW USA_R64_NE USA_R64_SE USA_R64_SW USA_R64_NW USA_POCI USA_ROCI USA_RMW USA_EYE TOKYO_LAT TOKYO_LON TOKYO_GRADE TOKYO_WIND TOKYO_PRES TOKYO_R50_DIR TOKYO_R50_LONG TOKYO_R50_SHORT TOKYO_R30_DIR TOKYO_R30_LONG TOKYO_R30_SHORT TOKYO_LAND CMA_LAT CMA_LON CMA_CAT CMA_WIND CMA_PRES HKO_LAT HKO_LON HKO_CAT HKO_WIND HKO_PRES NEWDELHI_LAT NEWDELHI_LON NEWDELHI_GRADE NEWDELHI_WIND NEWDELHI_PRES NEWDELHI_CI NEWDELHI_DP NEWDELHI_POCI REUNION_LAT REUNION_LON REUNION_TYPE REUNION_WIND REUNION_PRES REUNION_TNUM REUNION_CI REUNION_RMW REUNION_R34_NE REUNION_R34_SE REUNION_R34_SW REUNION_R34_NW REUNION_R50_NE REUNION_R50_SE REUNION_R50_SW REUNION_R50_NW REUNION_R64_NE REUNION_R64_SE REUNION_R64_SW REUNION_R64_NW BOM_LAT BOM_LON BOM_TYPE BOM_WIND BOM_PRES BOM_TNUM BOM_CI BOM_RMW BOM_R34_NE BOM_R34_SE BOM_R34_SW BOM_R34_NW BOM_R50_NE BOM_R50_SE BOM_R50_SW BOM_R50_NW BOM_R64_NE BOM_R64_SE BOM_R64_SW BOM_R64_NW BOM_ROCI BOM_POCI BOM_EYE BOM_POS_METHOD BOM_PRES_METHOD NADI_LAT NADI_LON NADI_CAT NADI_WIND NADI_PRES WELLINGTON_LAT WELLINGTON_LON WELLINGTON_WIND WELLINGTON_PRES DS824_LAT DS824_LON DS824_STAGE DS824_WIND DS824_PRES TD9636_LAT TD9636_LON TD9636_STAGE TD9636_WIND TD9636_PRES TD9635_LAT TD9635_LON TD9635_WIND TD9635_PRES TD9635_ROCI NEUMANN_LAT NEUMANN_LON NEUMANN_CLASS NEUMANN_WIND NEUMANN_PRES MLC_LAT MLC_LON MLC_CLASS MLC_WIND MLC_PRES USA_GUST BOM_GUST BOM_GUST_PER REUNION_GUST REUNION_GUST_PER USA_SEAHGT USA_SEARAD_NE USA_SEARAD_SE USA_SEARAD_SW USA_SEARAD_NW STORM_SPEED STORM_DIR
1922218N11143 1922 42 WP MM NOT_NAMED 1922-08-05 22:00:00 NR 10.9000 142.500 main 1479 1475 __________O___ -1 10.9000 142.500 7 12 299
1922218N11143 1922 42 WP MM NOT_NAMED 1922-08-06 00:00:00 NR 11.0929 142.152 main 1490 1487 __________P___ -1 11.0929 142.152 7 12 300
1922218N11143 1922 42 WP MM NOT_NAMED 1922-08-06 03:00:00 NR 11.3846 141.628 main 1504 1500 __________P___ -1 11.3846 141.628 7 12 300
1922218N11143 1922 42 WP MM NOT_NAMED 1922-08-06 06:00:00 NR 11.6832 141.103 main 1513 1509 __________P___ -1 11.6832 141.103 7 12 301
1922218N11143 1922 42 WP MM NOT_NAMED 1922-08-06 09:00:00 NR 11.9933 140.576 main 1525 1521 __________P___ -1 11.9933 140.576 7 12 301
1922218N11143 1922 42 WP MM NOT_NAMED 1922-08-06 10:00:00 NR 12.1000 140.400 main 1528 1524 __________O___ -1 12.1000 140.400 7 12 302
1922218N11143 1922 42 WP MM NOT_NAMED 1922-08-06 12:00:00 NR 12.3187 140.048 main 1535 1503 __________P___ -1 12.3187 140.048 7 12 303
1922218N11143 1922 42 WP MM NOT_NAMED 1922-08-06 15:00:00 NR 12.6534 139.526 main 1503 1453 __________P___ -1 12.6534 139.526 7 12 304
1922218N11143 1922 42 WP MM NOT_NAMED 1922-08-06 18:00:00 NR 12.9849 139.022 main 1453 1405 __________P___ -1 12.9849 139.022 7 12 304
1922218N11143 1922 42 WP MM NOT_NAMED 1922-08-06 21:00:00 NR 13.3005 138.549 main 1405 1396 __________P___ -1 13.3005 138.549 7 11 304
1922218N11143 1922 42 WP MM NOT_NAMED 1922-08-06 22:00:00 NR 13.4000 138.400 main 1396 1368 __________O___ -1 13.4000 138.400 7 10 305
1922218N11143 1922 42 WP MM NOT_NAMED 1922-08-07 00:00:00 NR 13.5833 138.131 main 1368 1340 __________P___ -1 13.5833 138.131 7 9 305
1922218N11143 1922 42 WP MM NOT_NAMED 1922-08-07 03:00:00 NR 13.8397 137.761 main 1340 1306 __________P___ -1 13.8397 137.761 7 9 305
1922218N11143 1922 42 WP MM NOT_NAMED 1922-08-07 06:00:00 NR 14.0822 137.404 main 1306 1267 __________P___ -1 14.0822 137.404 7 9 304
1922218N11143 1922 42 WP MM NOT_NAMED 1922-08-07 09:00:00 NR 14.3201 137.032 main 1267 1258 __________P___ -1 14.3201 137.032 7 9 303
1922218N11143 1922 42 WP MM NOT_NAMED 1922-08-07 10:00:00 NR 14.4000 136.900 main 1258 1228 __________O___ -1 14.4000 136.900 7 10 301
1922218N11143 1922 42 WP MM NOT_NAMED 1922-08-07 12:00:00 NR 14.5614 136.609 main 1230 1182 __________P___ -1 14.5614 136.609 7 10 299
1922218N11143 1922 42 WP MM NOT_NAMED 1922-08-07 15:00:00 NR 14.8033 136.146 main 1182 1146 __________P___ -1 14.8033 136.146 7 10 298
1922218N11143 1922 42 WP MM NOT_NAMED 1922-08-07 18:00:00 NR 15.0507 135.662 main 1149 1104 __________P___ -1 15.0507 135.662 7 11 298
1922218N11143 1922 42 WP MM NOT_NAMED 1922-08-07 21:00:00 NR 15.3099 135.166 main 1104 1086 __________P___ -1 15.3099 135.166 7 11 299
1922218N11143 1922 42 WP MM NOT_NAMED 1922-08-07 22:00:00 NR 15.4000 135.000 main 1086 1060 __________O___ -1 15.4000 135.000 7 11 300
1922218N11143 1922 42 WP MM NOT_NAMED 1922-08-08 00:00:00 NR 15.5859 134.662 main 1063 1016 __________P___ -1 15.5859 134.662 7 11 300
1922218N11143 1922 42 WP MM NOT_NAMED 1922-08-08 03:00:00 NR 15.8775 134.148 main 1016 981 __________P___ -1 15.8775 134.148 7 12 301
1922218N11143 1922 42 WP MM NOT_NAMED 1922-08-08 06:00:00 NR 16.1813 133.640 main 981 953 __________P___ -1 16.1813 133.640 7 11 303
1922218N11143 1922 42 WP MM NOT_NAMED 1922-08-08 09:00:00 NR 16.4942 133.154 main 959 946 __________P___ -1 16.4942 133.154 7 11 304
1922218N11143 1922 42 WP MM NOT_NAMED 1922-08-08 10:00:00 NR 16.6000 133.000 main 946 930 __________O___ -1 16.6000 133.000 7 11 306
1922218N11143 1922 42 WP MM NOT_NAMED 1922-08-08 12:00:00 NR 16.8001 132.707 main 930 914 __________P___ -1 16.8001 132.707 7 10 307
1922218N11143 1922 42 WP MM NOT_NAMED 1922-08-08 15:00:00 NR 17.1066 132.294 main 914 893 __________P___ -1 17.1066 132.294 7 10 309
1922218N11143 1922 42 WP MM NOT_NAMED 1922-08-08 18:00:00 NR 17.4291 131.903 main 893 876 __________P___ -1 17.4291 131.903 7 10 312
1922218N11143 1922 42 WP MM NOT_NAMED 1922-08-08 21:00:00 NR 17.7769 131.525 main 876 872 __________P___ -1 17.7769 131.525 7 10 315
1922218N11143 1922 42 WP MM NOT_NAMED 1922-08-08 22:00:00 NR 17.9000 131.400 main 872 856 __________O___ -1 17.9000 131.400 7 10 316
1922218N11143 1922 42 WP MM NOT_NAMED 1922-08-09 00:00:00 NR 18.1498 131.144 main 856 855 __________P___ -1 18.1498 131.144 7 11 317
1922218N11143 1922 42 WP MM NOT_NAMED 1922-08-09 03:00:00 NR 18.5497 130.766 main 855 850 __________P___ -1 18.5497 130.766 7 11 319
1922218N11143 1922 42 WP MM NOT_NAMED 1922-08-09 06:00:00 NR 18.9797 130.394 main 855 817 __________P___ -1 18.9797 130.394 7 11 322
1922218N11143 1922 42 WP MM NOT_NAMED 1922-08-09 09:00:00 NR 19.4399 130.023 main 817 808 __________P___ -1 19.4399 130.023 7 12 323
1922218N11143 1922 42 WP MM NOT_NAMED 1922-08-09 10:00:00 NR 19.6000 129.900 main 810 784 __________O___ -1 19.6000 129.900 7 13 323
1922218N11143 1922 42 WP MM NOT_NAMED 1922-08-09 12:00:00 NR 19.9431 129.614 main 784 757 __________P___ -1 19.9431 129.614 7 13 323
1922218N11143 1922 42 WP MM NOT_NAMED 1922-08-09 15:00:00 NR 20.4834 129.184 main 760 739 __________P___ -1 20.4834 129.184 7 13 325
1922218N11143 1922 42 WP MM NOT_NAMED 1922-08-09 18:00:00 NR 21.0262 128.791 main 739 729 __________P___ -1 21.0262 128.791 7 13 328
1922218N11143 1922 42 WP MM NOT_NAMED 1922-08-09 21:00:00 NR 21.5403 128.479 main 734 730 __________P___ -1 21.5403 128.479 7 12 332
1922218N11143 1922 42 WP MM NOT_NAMED 1922-08-09 22:00:00 NR 21.7000 128.400 main 734 710 __________O___ -1 21.7000 128.400 7 9 340
1922218N11143 1922 42 WP MM NOT_NAMED 1922-08-10 00:00:00 NR 21.9733 128.307 main 710 697 __________P___ -1 21.9733 128.307 7 8 349
1922218N11143 1922 42 WP MM NOT_NAMED 1922-08-10 03:00:00 NR 22.3457 128.258 main 697 682 __________P___ -1 22.3457 128.258 7 7 357
1922218N11143 1922 42 WP MM NOT_NAMED 1922-08-10 06:00:00 NR 22.7005 128.271 main 682 669 __________P___ -1 22.7005 128.271 7 7 3
1922218N11143 1922 42 WP MM NOT_NAMED 1922-08-10 09:00:00 NR 23.0689 128.297 main 669 666 __________P___ -1 23.0689 128.297 7 8 0
1922218N11143 1922 42 WP MM NOT_NAMED 1922-08-10 10:00:00 NR 23.2000 128.300 main 666 659 __________O___ -1 23.2000 128.300 3 9 355
1922218N11143 1922 42 WP MM NOT_NAMED 1922-08-10 12:00:00 NR 23.5200 128.264 main 659 636 __________P___ -1 23.5200 128.264 3 10 353
1922218N11143 1922 42 WP MM NOT_NAMED 1922-08-10 15:00:00 NR 24.0259 128.198 main 636 618 __________P___ -1 24.0259 128.198 3 10 352
1922218N11143 1922 42 WP MM NOT_NAMED 1922-08-10 18:00:00 NR 24.5239 128.119 main 618 604 __________P___ -1 24.5239 128.119 3 10 351
1922218N11143 1922 42 WP MM NOT_NAMED 1922-08-10 21:00:00 NR 24.9703 128.031 main 604 604 __________P___ -1 24.9703 128.031 3 9 350
1922218N11143 1922 42 WP MM NOT_NAMED 1922-08-10 22:00:00 NR 25.1000 128.000 main 604 604 __________O___ -1 25.1000 128.000 4 7 348
1922218N11143 1922 42 WP MM NOT_NAMED 1922-08-11 00:00:00 NR 25.3096 127.952 main 604 594 __________P___ -1 25.3096 127.952 4 6 346
1922218N11143 1922 42 WP MM NOT_NAMED 1922-08-11 03:00:00 NR 25.5610 127.874 main 596 586 __________P___ -1 25.5610 127.874 4 5 341
1922218N11143 1922 42 WP MM NOT_NAMED 1922-08-11 06:00:00 NR 25.7620 127.778 main 588 579 __________P___ -1 25.7620 127.778 4 4 332
1922218N11143 1922 42 WP MM NOT_NAMED 1922-08-11 09:00:00 NR 25.9406 127.651 main 580 572 __________P___ -1 25.9406 127.651 4 4 327
1922218N11143 1922 42 WP MM NOT_NAMED 1922-08-11 10:00:00 NR 26.0000 127.600 main 572 564 __________O___ -1 26.0000 127.600 4 5 323
1922218N11143 1922 42 WP MM NOT_NAMED 1922-08-11 12:00:00 NR 26.1310 127.494 main 564 550 __________P___ -1 26.1310 127.494 4 5 320
1922218N11143 1922 42 WP MM NOT_NAMED 1922-08-11 15:00:00 NR 26.3211 127.304 main 550 537 __________P___ -1 26.3211 127.304 4 5 315
1922218N11143 1922 42 WP MM NOT_NAMED 1922-08-11 18:00:00 NR 26.5147 127.074 main 537 516 __________P___ -1 26.5147 127.074 4 6 312
1922218N11143 1922 42 WP MM NOT_NAMED 1922-08-11 21:00:00 NR 26.7243 126.801 main 516 510 __________P___ -1 26.7243 126.801 4 7 311
1922218N11143 1922 42 WP MM NOT_NAMED 1922-08-11 22:00:00 NR 26.8000 126.700 main 510 497 __________O___ -1 26.8000 126.700 4 8 312
1922218N11143 1922 42 WP MM NOT_NAMED 1922-08-12 00:00:00 NR 26.9767 126.490 main 501 453 __________P___ -1 26.9767 126.490 4 8 313
1922218N11143 1922 42 WP MM NOT_NAMED 1922-08-12 03:00:00 NR 27.2609 126.137 main 453 408 __________P___ -1 27.2609 126.137 4 9 311
1922218N11143 1922 42 WP MM NOT_NAMED 1922-08-12 06:00:00 NR 27.5486 125.749 main 408 357 __________P___ -1 27.5486 125.749 4 9 308
1922218N11143 1922 42 WP MM NOT_NAMED 1922-08-12 09:00:00 NR 27.8180 125.339 main 357 344 __________P___ -1 27.8180 125.339 4 9 306
1922218N11143 1922 42 WP MM NOT_NAMED 1922-08-12 10:00:00 NR 27.9000 125.200 main 344 312 __________O___ -1 27.9000 125.200 4 8 302
1922218N11143 1922 42 WP MM NOT_NAMED 1922-08-12 12:00:00 NR 28.0392 124.933 main 312 267 __________P___ -1 28.0392 124.933 4 8 298
1922218N11143 1922 42 WP MM NOT_NAMED 1922-08-12 15:00:00 NR 28.2230 124.520 main 267 223 __________P___ -1 28.2230 124.520 4 8 295
1922218N11143 1922 42 WP MM NOT_NAMED 1922-08-12 18:00:00 NR 28.3879 124.092 main 223 182 __________P___ -1 28.3879 124.092 4 8 293
1922218N11143 1922 42 WP MM NOT_NAMED 1922-08-12 21:00:00 NR 28.5464 123.651 main 182 160 __________P___ -1 28.5464 123.651 4 8 292
1922218N11143 1922 42 WP MM NOT_NAMED 1922-08-12 22:00:00 NR 28.6000 123.500 main 160 129 __________O___ -1 28.6000 123.500 4 9 294
1922218N11143 1922 42 WP MM NOT_NAMED 1922-08-13 00:00:00 NR 28.7270 123.195 main 129 75 __________P___ -1 28.7270 123.195 4 9 295
1922218N11143 1922 42 WP MM NOT_NAMED 1922-08-13 03:00:00 NR 28.9178 122.725 main 75 22 __________P___ -1 28.9178 122.725 4 9 294
1922218N11143 1922 42 WP MM NOT_NAMED 1922-08-13 06:00:00 NR 29.0979 122.245 main 22 0 __________P___ -1 29.0979 122.245 4 9 292
1922218N11143 1922 42 WP MM NOT_NAMED 1922-08-13 09:00:00 NR 29.2549 121.761 main 0 0 __________P___ -1 29.2549 121.761 4 9 290
1922218N11143 1922 42 WP MM NOT_NAMED 1922-08-13 10:00:00 NR 29.3000 121.600 main 0 0 __________O___ -1 29.3000 121.600 4 9 286
1922218N11143 1922 42 WP MM NOT_NAMED 1922-08-13 12:00:00 NR 29.3776 121.280 main 0 0 __________P___ -1 29.3776 121.280 4 9 284
1922218N11143 1922 42 WP MM NOT_NAMED 1922-08-13 15:00:00 NR 29.4671 120.803 main 0 0 __________P___ -1 29.4671 120.803 4 8 281
1922218N11143 1922 42 WP MM NOT_NAMED 1922-08-13 18:00:00 NR 29.5329 120.329 main 0 0 __________P___ -1 29.5329 120.329 4 8 278
1922218N11143 1922 42 WP MM NOT_NAMED 1922-08-13 21:00:00 NR 29.5844 119.857 main 0 0 __________P___ -1 29.5844 119.857 4 8 277
1922218N11143 1922 42 WP MM NOT_NAMED 1922-08-13 22:00:00 NR 29.6000 119.700 main 0 __________O___ -1 29.6000 119.700 7 8 277

Digital Typhoon Data and Search

About IBTrACS Database

This database is a web-friendly format of International Best Track Archive for Climate Stewardship (IBTrACS), a global best track data archive curated by NOAA dating back to 1842.

Updated: 2021-12-01